Terminal Aerodrome Forecast
Issued by NWS

Home | Current Version | Previous Version | Text Only | Print | Product List | Glossary On
Versions: 1 2 3 4 5 6 7 8 9 10 11 12 13 14 15 16 17 18 19 20 21 22 23 24 25 26 27 28 29 30 31
000
FTUS41 KCTP 300600 AAA
TAFAOO
TAF AMD
KAOO 300600Z 3006/3106 VRB03KT 5SM BR SCT100
     FM301200 VRB03KT 6SM HZ BKN100
     FM301500 12003KT 6SM HZ VCSH BKN050 OVC100
     FM301900 13005KT 5SM -SHRA BR VCTS OVC040CB
     FM310200 23004KT 3SM BR VCSH OVC020=

USA.gov is the U.S. government's official web portal to all federal, state and local government web resources and services.